Vista, Missouri
Current Conditions -  °F | °C
As of 6:15 AM on Sunday 23 Nov 2014 (Local Time) from KGLY Reporting Station
Overcast Overcast  
Wind Chill: 55°   Ceiling: 1500
Heat Index: 55°   Visibility: 7mi
Dew Point: 55°   Wind: 12mph
Humidity: 100%   Direction: 160°SSE
Pressure: 29.58"   Gusts: NA
Location:  37.99°N, 93.66°W
Report Text: KGLY 231215Z AUTO 16010KT 7SM FEW008 BKN015 OVC022 13/13 A2958 RMK AO2
Loading
Personal Weather Stations






























Interactive Weather Map New forecast layout! Learn more

10-Day Weather Forecast

Advertisements
Track Severe Weather on mobile